Argos, Indiana
Current Conditions -  °F | °C
As of 12:15 AM on Thursday 23 Oct 2014 (Local Time) from KRCR Reporting Station
Clear Clear  
Wind Chill: 39°   Ceiling: Unl
Heat Index: 39°   Visibility: 7mi
Dew Point: 39°   Wind: 3mph
Humidity: 100%   Direction: 100°E
Pressure: 30.29"   Gusts: NA
Location:  41.23°N, 86.24°W
Report Text: KRCR 230415Z AUTO 10003KT 7SM CLR 04/04 A3029 RMK AO2
Loading
Personal Weather Stations






























Interactive Weather Map
Tropical Storm Tracking
New forecast layout! Learn more

10-Day Weather Forecast

Advertisements
Track Severe Weather on mobile